createdAt,value
2023-03-21T00:00:29.515Z,11.30
2023-03-21T00:02:56.528Z,10.05
2023-03-21T00:05:23.472Z,14.27
2023-03-21T00:07:50.492Z,11.35
2023-03-21T00:10:26.777Z,13.50
2023-03-21T00:12:59.872Z,10.68
2023-03-21T00:15:39.286Z,11.93
2023-03-21T00:18:11.391Z,16.33
2023-03-21T00:20:38.210Z,13.00
2023-03-21T00:23:04.992Z,14.45
2023-03-21T00:25:32.893Z,20.75
2023-03-21T00:28:08.022Z,10.40
2023-03-21T00:30:35.445Z,15.80
2023-03-21T00:33:12.056Z,17.33
2023-03-21T00:36:02.574Z,11.82
2023-03-21T00:38:34.163Z,11.95
2023-03-21T00:41:11.004Z,14.25
2023-03-21T00:43:44.388Z,12.60
2023-03-21T00:46:11.184Z,13.85
2023-03-21T00:48:39.394Z,10.13
2023-03-21T00:51:25.850Z,12.95
2023-03-21T00:53:58.200Z,10.00
2023-03-21T00:56:27.727Z,15.15
2023-03-21T00:58:54.470Z,14.52
2023-03-21T01:01:21.288Z,13.68
2023-03-21T01:03:50.915Z,10.77
2023-03-21T01:06:20.836Z,14.25
2023-03-21T01:08:52.617Z,11.95
2023-03-21T01:11:25.926Z,12.88
2023-03-21T01:13:59.597Z,15.18
2023-03-21T01:16:29.223Z,12.25
2023-03-21T01:18:56.648Z,12.25
2023-03-21T01:21:23.390Z,13.18
2023-03-21T01:23:50.633Z,9.00
2023-03-21T01:26:17.533Z,15.13
2023-03-21T01:28:45.253Z,12.60
2023-03-21T01:31:15.189Z,16.13
2023-03-21T01:33:43.575Z,14.35
2023-03-21T01:36:17.931Z,12.43
2023-03-21T01:38:45.844Z,12.38
2023-03-21T01:41:33.676Z,18.73
2023-03-21T01:44:05.960Z,14.15
2023-03-21T01:49:59.371Z,15.05
2023-03-21T01:52:38.763Z,11.27
2023-03-21T01:55:12.638Z,14.35
2023-03-21T01:58:06.314Z,13.15
2023-03-21T02:00:43.660Z,14.25
2023-03-21T02:03:35.241Z,11.00
2023-03-21T02:06:50.359Z,12.48
2023-03-21T02:09:32.369Z,14.57
2023-03-21T02:12:00.258Z,13.10
2023-03-21T02:14:34.515Z,11.30
2023-03-21T02:17:13.969Z,11.25
2023-03-21T02:20:08.717Z,12.98
2023-03-21T02:23:02.842Z,13.85
2023-03-21T02:25:54.309Z,12.55
2023-03-21T02:28:31.288Z,15.18
2023-03-21T02:31:15.664Z,14.32
2023-03-21T02:34:10.204Z,10.55
2023-03-21T02:37:03.183Z,15.00
2023-03-21T02:39:49.258Z,14.27
2023-03-21T02:42:42.056Z,15.95
2023-03-21T02:45:20.240Z,10.68
2023-03-21T02:48:04.500Z,17.15
2023-03-21T02:50:41.740Z,16.23
2023-03-21T02:53:12.820Z,10.43
2023-03-21T02:55:42.954Z,15.05
2023-03-21T02:58:13.805Z,11.85
2023-03-21T03:00:50.077Z,10.82
2023-03-21T03:03:34.806Z,14.43
2023-03-21T03:06:13.409Z,13.05
2023-03-21T03:09:12.848Z,13.77
2023-03-21T03:11:43.209Z,13.57
2023-03-21T03:14:56.456Z,16.23
2023-03-21T03:17:27.949Z,14.05
2023-03-21T03:20:32.177Z,20.88
2023-03-21T03:23:34.307Z,16.23
2023-03-21T03:26:26.372Z,12.02
2023-03-21T03:29:01.113Z,13.88
2023-03-21T03:31:34.478Z,15.05
2023-03-21T03:34:14.118Z,14.20
2023-03-21T03:36:47.479Z,13.60
2023-03-21T03:39:18.208Z,12.88
2023-03-21T03:42:15.534Z,14.55
2023-03-21T03:44:53.112Z,18.17
2023-03-21T03:47:56.760Z,14.80
2023-03-21T03:50:38.693Z,15.73
2023-03-21T03:53:28.570Z,8.95
2023-03-21T03:55:57.417Z,15.65
2023-03-21T03:58:36.162Z,14.15
2023-03-21T04:01:07.477Z,11.63
2023-03-21T04:03:48.377Z,11.57
2023-03-21T04:06:18.129Z,10.52
2023-03-21T04:08:45.350Z,14.60
2023-03-21T04:11:15.795Z,12.60
2023-03-21T04:13:46.864Z,14.15
2023-03-21T04:16:19.779Z,11.85
2023-03-21T04:18:47.661Z,13.15
2023-03-21T04:21:18.476Z,13.40
2023-03-21T04:23:45.392Z,13.48
2023-03-21T04:26:12.231Z,14.40
2023-03-21T04:28:43.740Z,12.23
2023-03-21T04:31:27.181Z,14.32
2023-03-21T04:34:09.813Z,13.35
2023-03-21T04:36:47.524Z,15.30
2023-03-21T04:39:15.243Z,13.23
2023-03-21T04:41:46.270Z,15.82
2023-03-21T04:44:15.503Z,13.10
2023-03-21T04:46:42.604Z,12.40
2023-03-21T04:49:10.829Z,11.20
2023-03-21T04:51:38.753Z,12.13
2023-03-21T04:56:36.578Z,13.05
2023-03-21T04:59:09.821Z,11.90
2023-03-21T05:01:37.144Z,12.30
2023-03-21T05:04:04.399Z,16.80
2023-03-21T05:06:33.461Z,16.77
2023-03-21T05:09:05.201Z,10.82
2023-03-21T05:11:37.484Z,13.30
2023-03-21T05:14:05.678Z,12.48
2023-03-21T05:16:32.805Z,13.80
2023-03-21T05:19:03.841Z,10.77
2023-03-21T05:21:41.191Z,16.23
2023-03-21T05:24:20.266Z,12.82
2023-03-21T05:26:50.792Z,14.23
2023-03-21T05:29:19.690Z,14.07
2023-03-21T05:31:52.989Z,16.77
2023-03-21T05:34:20.647Z,13.25
2023-03-21T05:36:47.562Z,14.77
2023-03-21T05:39:14.316Z,11.60
2023-03-21T05:41:46.641Z,11.95
2023-03-21T05:44:14.086Z,13.68
2023-03-21T05:46:40.960Z,11.88
2023-03-21T05:49:07.978Z,13.13
2023-03-21T05:51:35.257Z,12.68
2023-03-21T05:54:01.919Z,17.35
2023-03-21T05:56:29.689Z,11.93
2023-03-21T05:59:01.691Z,13.98
2023-03-21T06:01:30.913Z,12.65
2023-03-21T06:04:07.262Z,13.80
2023-03-21T06:06:34.335Z,13.40
2023-03-21T06:09:01.953Z,15.27
2023-03-21T06:11:34.062Z,17.73
2023-03-21T06:14:25.405Z,11.57
2023-03-21T06:17:13.159Z,19.30
2023-03-21T06:20:05.050Z,16.67
2023-03-21T06:22:36.410Z,20.33
2023-03-21T06:25:04.721Z,16.10
2023-03-21T06:27:31.399Z,20.33
2023-03-21T06:29:59.398Z,17.67
2023-03-21T06:32:27.614Z,24.17
2023-03-21T06:34:58.447Z,16.88
2023-03-21T06:37:26.450Z,21.70
2023-03-21T06:39:55.485Z,16.20
2023-03-21T06:42:23.031Z,23.05
2023-03-21T06:44:51.265Z,21.50
2023-03-21T06:47:18.104Z,18.70
2023-03-21T06:49:46.285Z,18.90
2023-03-21T06:52:13.469Z,23.55
2023-03-21T06:54:42.228Z,21.25
2023-03-21T06:57:14.155Z,23.02
2023-03-21T06:59:44.152Z,20.98
2023-03-21T07:02:15.884Z,18.77
2023-03-21T07:04:59.695Z,20.92
2023-03-21T07:07:29.674Z,19.33
2023-03-21T07:09:56.593Z,19.35
2023-03-21T07:12:24.595Z,21.25
2023-03-21T07:15:10.089Z,18.67
2023-03-21T07:17:38.485Z,22.15
2023-03-21T07:20:08.711Z,19.00
2023-03-21T07:22:36.213Z,20.73
2023-03-21T07:25:05.404Z,14.45
2023-03-21T07:27:40.658Z,20.60
2023-03-21T07:30:08.717Z,18.60
2023-03-21T07:32:37.733Z,14.75
2023-03-21T07:35:06.078Z,15.82
2023-03-21T07:37:32.703Z,13.73
2023-03-21T07:39:59.727Z,20.17
2023-03-21T07:42:26.489Z,15.27
2023-03-21T07:44:59.238Z,13.60
2023-03-21T07:47:29.587Z,16.00
2023-03-21T07:49:56.292Z,12.70
2023-03-21T07:52:23.011Z,12.23
2023-03-21T07:54:49.629Z,19.38
2023-03-21T07:57:17.401Z,16.17
2023-03-21T07:59:44.181Z,14.00
2023-03-21T08:02:14.891Z,14.77
2023-03-21T08:04:41.653Z,13.57
2023-03-21T08:07:08.522Z,13.05
2023-03-21T08:09:36.116Z,15.27
2023-03-21T08:12:04.067Z,12.25
2023-03-21T08:14:30.802Z,13.18
2023-03-21T08:16:57.613Z,11.98
2023-03-21T08:19:24.322Z,14.07
2023-03-21T08:21:51.918Z,16.20
2023-03-21T08:24:19.274Z,12.55
2023-03-21T08:26:46.528Z,11.65
2023-03-21T08:29:13.598Z,17.02
2023-03-21T08:31:41.320Z,19.80
2023-03-21T08:34:08.109Z,15.13
2023-03-21T08:36:36.845Z,13.75
2023-03-21T08:39:05.488Z,16.30
2023-03-21T08:41:36.380Z,13.02
2023-03-21T08:44:05.723Z,13.40
2023-03-21T08:46:32.770Z,12.00
2023-03-21T08:48:59.482Z,17.08
2023-03-21T08:51:26.153Z,13.23
2023-03-21T08:53:52.905Z,12.98
2023-03-21T08:56:19.603Z,12.52
2023-03-21T08:58:47.311Z,14.23
2023-03-21T09:01:15.538Z,14.75
2023-03-21T09:03:43.590Z,14.43
2023-03-21T09:06:13.475Z,14.98
2023-03-21T09:08:41.826Z,16.15
2023-03-21T09:11:09.605Z,12.75
2023-03-21T09:13:36.502Z,14.10
2023-03-21T09:16:03.837Z,12.18
2023-03-21T09:18:47.303Z,11.70
2023-03-21T09:21:16.046Z,11.07
2023-03-21T09:23:44.690Z,13.40
2023-03-21T09:26:12.429Z,18.85
2023-03-21T09:28:40.367Z,16.50
2023-03-21T09:31:08.919Z,11.65
2023-03-21T09:33:35.957Z,11.88
2023-03-21T09:36:03.584Z,10.73
2023-03-21T09:38:30.409Z,16.63
2023-03-21T09:41:16.248Z,11.55
2023-03-21T09:44:10.681Z,13.48
2023-03-21T09:46:43.207Z,12.45
2023-03-21T09:49:18.718Z,10.63
2023-03-21T09:51:50.992Z,15.50
2023-03-21T09:54:21.274Z,12.05
2023-03-21T09:56:51.264Z,12.57
2023-03-21T09:59:33.382Z,12.45
2023-03-21T10:02:01.716Z,9.30
2023-03-21T10:04:29.421Z,16.48
2023-03-21T10:07:02.070Z,16.05
2023-03-21T10:09:30.368Z,10.85
2023-03-21T10:12:04.278Z,15.65
2023-03-21T10:14:34.001Z,12.40
2023-03-21T10:17:24.618Z,17.27
2023-03-21T10:20:15.930Z,11.30
2023-03-21T10:22:45.892Z,15.73
2023-03-21T10:25:24.547Z,13.05
2023-03-21T10:27:52.647Z,9.57
2023-03-21T10:30:25.494Z,11.00
2023-03-21T10:32:52.428Z,10.65
2023-03-21T10:35:19.755Z,9.55
2023-03-21T10:37:46.891Z,11.93
2023-03-21T10:40:17.185Z,13.10
2023-03-21T10:42:44.176Z,14.00
2023-03-21T10:45:17.580Z,9.82
2023-03-21T10:47:48.381Z,12.23
2023-03-21T10:50:17.886Z,13.02
2023-03-21T10:52:50.867Z,14.90
2023-03-21T10:55:17.661Z,9.40
2023-03-21T10:57:46.606Z,9.15
2023-03-21T11:00:22.422Z,11.48
2023-03-21T11:02:51.489Z,9.05
2023-03-21T11:05:40.137Z,9.05
2023-03-21T11:08:13.963Z,10.27
2023-03-21T11:11:01.314Z,10.25
2023-03-21T11:13:37.712Z,13.13
2023-03-21T11:16:30.256Z,10.63
2023-03-21T11:19:01.402Z,9.43
2023-03-21T11:21:29.657Z,8.77
2023-03-21T11:23:57.314Z,9.98
2023-03-21T11:26:30.802Z,11.63
2023-03-21T11:28:58.374Z,10.27
2023-03-21T11:31:41.367Z,11.25
2023-03-21T11:34:09.537Z,12.52
2023-03-21T11:36:41.356Z,12.95
2023-03-21T11:39:39.524Z,12.45
2023-03-21T11:42:28.718Z,14.10
2023-03-21T11:45:10.332Z,10.65
2023-03-21T11:47:37.302Z,13.27
2023-03-21T11:50:29.818Z,11.18
2023-03-21T11:53:11.719Z,12.82
2023-03-21T11:55:50.212Z,11.68
2023-03-21T11:58:28.341Z,8.85
2023-03-21T12:01:09.066Z,10.80
2023-03-21T12:04:04.495Z,10.25
2023-03-21T12:06:52.730Z,9.95
2023-03-21T12:09:45.757Z,8.52
2023-03-21T12:12:32.982Z,7.38
2023-03-21T12:15:13.924Z,9.65
2023-03-21T12:18:05.549Z,12.23
2023-03-21T12:20:49.820Z,7.57
2023-03-21T12:23:41.273Z,14.23
2023-03-21T12:26:31.920Z,9.43
2023-03-21T12:29:11.115Z,7.57
2023-03-21T12:31:47.032Z,7.75
2023-03-21T12:34:16.702Z,8.52
2023-03-21T12:37:14.767Z,9.23
2023-03-21T12:39:41.624Z,6.75
2023-03-21T12:42:39.362Z,10.98
2023-03-21T12:45:18.857Z,9.00
2023-03-21T12:47:53.264Z,5.45
2023-03-21T12:50:32.825Z,6.32
2023-03-21T12:53:07.695Z,6.63
2023-03-21T12:55:35.859Z,6.07
2023-03-21T12:58:24.527Z,7.47
2023-03-21T13:01:01.403Z,5.43
2023-03-21T13:03:40.387Z,5.63
2023-03-21T13:06:18.073Z,5.25
2023-03-21T13:08:51.148Z,7.35
2023-03-21T13:11:21.622Z,5.03
2023-03-21T13:14:11.544Z,5.22
2023-03-21T13:16:52.582Z,6.50
2023-03-21T13:19:34.456Z,5.70
2023-03-21T13:22:12.245Z,5.78
2023-03-21T13:24:43.755Z,6.55
2023-03-21T13:27:45.990Z,8.80
2023-03-21T13:30:20.536Z,3.28
2023-03-21T13:32:55.316Z,7.03
2023-03-21T13:35:29.160Z,5.80
2023-03-21T13:38:12.655Z,6.00
2023-03-21T13:40:51.707Z,8.15
2023-03-21T13:43:42.584Z,5.97
2023-03-21T13:46:50.540Z,8.55
2023-03-21T13:49:36.699Z,6.18
2023-03-21T13:52:09.642Z,5.57
2023-03-21T13:54:39.001Z,5.28
2023-03-21T13:57:06.608Z,8.30
2023-03-21T13:59:38.282Z,6.78
2023-03-21T14:02:22.735Z,6.05
2023-03-21T14:05:07.395Z,7.13
2023-03-21T14:07:40.977Z,5.78
2023-03-21T14:10:29.475Z,5.32
2023-03-21T14:12:56.951Z,5.03
2023-03-21T14:15:27.631Z,5.80
2023-03-21T14:17:55.490Z,6.97
2023-03-21T14:20:34.001Z,6.22
2023-03-21T14:23:03.202Z,6.70
2023-03-21T14:25:40.975Z,7.55
2023-03-21T14:28:18.916Z,5.50
2023-03-21T14:30:50.139Z,5.72
2023-03-21T14:33:39.437Z,5.38
2023-03-21T14:36:18.900Z,10.18
2023-03-21T14:38:57.072Z,6.60
2023-03-21T14:41:26.501Z,8.27
2023-03-21T14:44:15.296Z,3.67
2023-03-21T14:46:43.085Z,6.30
2023-03-21T14:49:28.145Z,4.38
2023-03-21T14:51:57.916Z,2.58
2023-03-21T14:54:27.155Z,6.03
2023-03-21T14:57:01.418Z,4.78
2023-03-21T14:59:32.101Z,5.80
2023-03-21T15:02:03.578Z,2.78
2023-03-21T15:04:31.786Z,2.42
2023-03-21T15:07:04.874Z,3.20
2023-03-21T15:09:34.523Z,4.03
2023-03-21T15:12:01.779Z,9.52
2023-03-21T15:14:36.688Z,2.97
2023-03-21T15:17:05.091Z,3.35
2023-03-21T15:19:34.599Z,4.32
2023-03-21T15:22:10.892Z,4.25
2023-03-21T15:24:42.152Z,4.85
2023-03-21T15:27:16.018Z,6.32
2023-03-21T15:29:43.711Z,4.57
2023-03-21T15:32:18.769Z,6.47
2023-03-21T15:34:46.203Z,3.55
2023-03-21T15:37:24.064Z,2.78
2023-03-21T15:39:52.372Z,6.32
2023-03-21T15:42:31.975Z,4.53
2023-03-21T15:45:02.280Z,2.70
2023-03-21T15:47:47.962Z,4.53
2023-03-21T15:50:27.265Z,3.85
2023-03-21T15:52:55.477Z,3.92
2023-03-21T15:55:35.342Z,4.90
2023-03-21T15:58:16.346Z,3.45
2023-03-21T16:01:04.156Z,3.58
2023-03-21T16:03:37.704Z,4.55
2023-03-21T16:06:19.697Z,5.35
2023-03-21T16:08:51.945Z,4.95
2023-03-21T16:11:28.245Z,3.92
2023-03-21T16:13:56.146Z,4.65
2023-03-21T16:16:25.387Z,4.93
2023-03-21T16:18:53.196Z,4.50
2023-03-21T16:21:24.048Z,4.20
2023-03-21T16:23:51.078Z,4.63
2023-03-21T16:26:23.546Z,5.15
2023-03-21T16:28:50.724Z,7.38
2023-03-21T16:31:19.949Z,5.68
2023-03-21T16:33:47.338Z,4.63
2023-03-21T16:36:27.513Z,3.92
2023-03-21T16:38:55.114Z,5.97
2023-03-21T16:41:26.246Z,7.60
2023-03-21T16:43:53.646Z,6.30
2023-03-21T16:46:26.048Z,4.47
2023-03-21T16:48:55.435Z,4.63
2023-03-21T16:51:33.775Z,7.32
2023-03-21T16:54:01.121Z,5.78
2023-03-21T16:56:29.724Z,7.38
2023-03-21T16:58:57.907Z,5.43
2023-03-21T17:01:29.851Z,7.50
2023-03-21T17:04:00.236Z,6.32
2023-03-21T17:06:28.716Z,4.22
2023-03-21T17:08:56.759Z,4.10
2023-03-21T17:11:26.728Z,4.13
2023-03-21T17:13:55.046Z,5.75
2023-03-21T17:16:26.835Z,5.13
2023-03-21T17:18:54.389Z,5.28
2023-03-21T17:21:23.759Z,4.35
2023-03-21T17:23:52.729Z,3.80
2023-03-21T17:26:27.891Z,4.18
2023-03-21T17:28:59.752Z,6.13
2023-03-21T17:31:28.202Z,9.80
2023-03-21T17:33:54.835Z,5.28
2023-03-21T17:36:29.815Z,5.05
2023-03-21T17:38:57.763Z,5.07
2023-03-21T17:41:24.790Z,6.97
2023-03-21T17:43:52.170Z,6.50
2023-03-21T17:46:22.316Z,5.57
2023-03-21T17:48:49.433Z,3.38
2023-03-21T17:51:16.969Z,4.50
2023-03-21T17:53:49.085Z,8.30
2023-03-21T17:56:20.034Z,8.52
2023-03-21T17:58:47.157Z,5.90
2023-03-21T18:01:14.343Z,6.20
2023-03-21T18:03:41.201Z,6.25
2023-03-21T18:06:14.987Z,8.55
2023-03-21T18:08:42.264Z,7.85
2023-03-21T18:11:12.499Z,6.35
2023-03-21T18:13:40.429Z,7.20
2023-03-21T18:16:07.947Z,4.22
2023-03-21T18:18:35.022Z,6.22
2023-03-21T18:21:02.087Z,4.97
2023-03-21T18:23:29.025Z,5.28
2023-03-21T18:25:55.742Z,4.70
2023-03-21T18:28:22.546Z,8.45
2023-03-21T18:31:07.433Z,3.78
2023-03-21T18:33:37.844Z,4.85
2023-03-21T18:36:07.457Z,5.43
2023-03-21T18:38:35.377Z,7.07
2023-03-21T18:41:02.080Z,6.75
2023-03-21T18:46:16.276Z,6.95
2023-03-21T18:48:43.241Z,7.40
2023-03-21T18:51:10.099Z,5.30
2023-03-21T18:53:36.853Z,9.52
2023-03-21T18:56:09.312Z,5.88
2023-03-21T18:58:37.189Z,5.95
2023-03-21T19:01:05.038Z,7.97
2023-03-21T19:03:37.130Z,7.75
2023-03-21T19:06:05.546Z,7.88
2023-03-21T19:08:34.768Z,9.50
2023-03-21T19:11:05.964Z,11.18
2023-03-21T19:13:33.921Z,9.32
2023-03-21T19:16:02.670Z,10.55
2023-03-21T19:18:52.174Z,7.30
2023-03-21T19:21:19.043Z,9.65
2023-03-21T19:26:32.546Z,7.38
2023-03-21T19:28:59.285Z,5.30
2023-03-21T19:31:26.691Z,6.10
2023-03-21T19:33:53.351Z,9.95
2023-03-21T19:36:22.693Z,8.43
2023-03-21T19:38:50.541Z,4.97
2023-03-21T19:41:18.523Z,8.35
2023-03-21T19:43:54.085Z,8.63
2023-03-21T19:46:24.643Z,7.53
2023-03-21T19:48:56.226Z,7.28
2023-03-21T19:51:30.049Z,6.53
2023-03-21T19:54:03.206Z,8.60
2023-03-21T19:56:31.648Z,7.05
2023-03-21T19:58:58.908Z,9.20
2023-03-21T20:01:26.251Z,9.57
2023-03-21T20:03:53.098Z,4.88
2023-03-21T20:06:22.358Z,6.28
2023-03-21T20:09:27.330Z,6.38
2023-03-21T20:11:36.789Z,7.97
2023-03-21T20:14:03.823Z,7.05
2023-03-21T20:16:35.068Z,9.55
2023-03-21T20:19:08.633Z,8.15
2023-03-21T20:21:46.594Z,8.07
2023-03-21T20:24:16.747Z,5.95
2023-03-21T20:26:45.058Z,7.15
2023-03-21T20:30:14.624Z,8.18
2023-03-21T20:31:59.849Z,5.05
2023-03-21T20:34:26.606Z,7.80
2023-03-21T20:36:53.343Z,6.75
2023-03-21T20:39:20.160Z,5.95
2023-03-21T20:41:46.779Z,7.00
2023-03-21T20:44:44.843Z,7.65
2023-03-21T20:47:00.391Z,6.07
2023-03-21T20:49:28.393Z,12.32
2023-03-21T20:54:43.325Z,6.78
2023-03-21T20:57:10.072Z,8.07
2023-03-21T20:59:36.784Z,7.05
2023-03-21T21:02:03.663Z,7.05
2023-03-21T21:04:52.935Z,6.75
2023-03-21T21:07:21.250Z,8.50
2023-03-21T21:09:49.082Z,14.30
2023-03-21T21:12:17.339Z,10.98
2023-03-21T21:14:44.051Z,10.00
2023-03-21T21:19:57.745Z,10.57
2023-03-21T21:22:24.391Z,6.45
2023-03-21T21:24:51.231Z,7.43
2023-03-21T21:27:17.967Z,10.90
2023-03-21T21:29:47.554Z,6.53
2023-03-21T21:32:16.628Z,6.45
2023-03-21T21:34:43.566Z,6.93
2023-03-21T21:37:10.535Z,7.63
2023-03-21T21:39:38.507Z,7.32
2023-03-21T21:42:05.578Z,5.13
2023-03-21T21:44:32.314Z,11.38
2023-03-21T21:46:59.460Z,6.43
2023-03-21T21:49:26.860Z,8.70
2023-03-21T21:51:53.560Z,6.35
2023-03-21T21:54:20.205Z,9.98
2023-03-21T21:56:53.865Z,10.18
2023-03-21T21:59:22.094Z,8.48
2023-03-21T22:01:51.196Z,7.95
2023-03-21T22:04:27.612Z,9.07
2023-03-21T22:06:55.260Z,8.05
2023-03-21T22:09:22.662Z,7.45
2023-03-21T22:11:49.529Z,9.82
2023-03-21T22:14:16.197Z,6.55
2023-03-21T22:16:43.859Z,7.85
2023-03-21T22:19:10.635Z,9.48
2023-03-21T22:21:37.319Z,10.52
2023-03-21T22:24:04.269Z,12.23
2023-03-21T22:26:31.326Z,12.65
2023-03-21T22:28:59.815Z,10.80
2023-03-21T22:31:26.693Z,14.27
2023-03-21T22:33:53.591Z,17.17
2023-03-21T22:36:20.521Z,13.52
2023-03-21T22:38:47.821Z,11.52
2023-03-21T22:41:14.626Z,13.57
2023-03-21T22:43:41.485Z,11.75
2023-03-21T22:46:08.220Z,9.27
2023-03-21T22:48:34.973Z,8.60
2023-03-21T22:51:01.682Z,8.50
2023-03-21T22:53:28.439Z,9.02
2023-03-21T22:55:55.751Z,8.25
2023-03-21T22:58:22.836Z,7.53
2023-03-21T23:00:49.485Z,9.15
2023-03-21T23:03:16.943Z,8.52
2023-03-21T23:05:44.912Z,9.77
2023-03-21T23:08:12.344Z,7.75
2023-03-21T23:10:41.385Z,7.90
2023-03-21T23:13:08.191Z,6.75
2023-03-21T23:15:34.941Z,7.50
2023-03-21T23:18:01.629Z,9.00
2023-03-21T23:20:28.376Z,8.10
2023-03-21T23:22:55.383Z,7.30
2023-03-21T23:25:22.066Z,9.38
2023-03-21T23:27:48.931Z,9.90
2023-03-21T23:30:15.745Z,6.57
2023-03-21T23:32:42.816Z,9.00
2023-03-21T23:35:10.171Z,10.45
2023-03-21T23:37:36.798Z,8.40
2023-03-21T23:40:06.131Z,8.90
2023-03-21T23:42:34.081Z,9.20
2023-03-21T23:45:00.859Z,7.00
2023-03-21T23:47:27.544Z,8.52
2023-03-21T23:49:54.394Z,8.38
2023-03-21T23:52:21.326Z,7.57
2023-03-21T23:54:48.050Z,8.27
2023-03-21T23:57:14.933Z,9.88
2023-03-21T23:59:41.623Z,7.90
